createdAt,value
2019-03-15T00:02:59.216Z,6.24
2019-03-15T00:08:54.206Z,11.94
2019-03-15T00:14:49.207Z,8.95
2019-03-15T00:20:44.247Z,4.86
2019-03-15T00:26:39.260Z,20.94
2019-03-15T00:32:34.225Z,7.58
2019-03-15T00:38:29.286Z,5.27
2019-03-15T00:44:24.239Z,5.94
2019-03-15T00:50:19.258Z,7
2019-03-15T00:56:14.260Z,6.08
2019-03-15T01:02:09.262Z,5.65
2019-03-15T01:08:04.273Z,5.62
2019-03-15T01:13:59.281Z,5.6
2019-03-15T01:19:54.282Z,5.48
2019-03-15T01:25:49.290Z,5.19
2019-03-15T01:31:44.305Z,6.62
2019-03-15T01:37:39.326Z,4.83
2019-03-15T01:43:34.332Z,5.59
2019-03-15T01:49:29.319Z,5.53
2019-03-15T01:55:24.325Z,5.39
2019-03-15T02:01:19.356Z,5.52
2019-03-15T02:07:14.339Z,4.8
2019-03-15T02:13:09.359Z,4.96
2019-03-15T02:19:04.329Z,5.51
2019-03-15T02:24:59.337Z,6.06
2019-03-15T02:30:54.366Z,6.35
2019-03-15T02:36:49.334Z,5.9
2019-03-15T02:42:44.362Z,5.06
2019-03-15T02:48:40.628Z,5.25
2019-03-15T02:54:34.355Z,5.45
2019-03-15T03:00:29.361Z,5.55
2019-03-15T03:06:24.394Z,6
2019-03-15T03:12:19.371Z,5.18
2019-03-15T03:18:14.393Z,5.2
2019-03-15T03:24:09.440Z,5.96
2019-03-15T03:30:04.544Z,4.97
2019-03-15T03:36:00.128Z,4.83
2019-03-15T03:41:54.399Z,5.57
2019-03-15T03:47:49.428Z,5.41
2019-03-15T03:53:44.413Z,5.4
2019-03-15T03:59:39.476Z,5.26
2019-03-15T04:05:34.465Z,5.16
2019-03-15T04:11:29.456Z,4.27
2019-03-15T04:17:24.447Z,5.33
2019-03-15T04:23:19.440Z,6.14
2019-03-15T04:29:14.444Z,6.2
2019-03-15T04:35:09.486Z,6.52
2019-03-15T04:41:04.472Z,7.43
2019-03-15T04:46:59.476Z,7.36
2019-03-15T04:52:54.509Z,7.4
2019-03-15T04:58:49.459Z,7.41
2019-03-15T05:04:44.477Z,7.09
2019-03-15T05:10:39.478Z,5.97
2019-03-15T05:16:34.514Z,5.9
2019-03-15T05:22:29.498Z,6.02
2019-03-15T05:28:24.506Z,5.39
2019-03-15T05:34:19.506Z,6.35
2019-03-15T05:40:14.516Z,6.72
2019-03-15T05:46:09.628Z,5.94
2019-03-15T05:52:04.529Z,4.68
2019-03-15T05:57:59.520Z,5.7
2019-03-15T06:03:54.551Z,5.48
2019-03-15T06:09:49.612Z,6.1
2019-03-15T06:15:44.550Z,5.41
2019-03-15T06:21:39.608Z,7.07
2019-03-15T06:27:34.558Z,6.63
2019-03-15T06:33:29.538Z,6.71
2019-03-15T06:39:24.549Z,8.07
2019-03-15T06:45:19.587Z,8.42
2019-03-15T06:51:14.615Z,10.02
2019-03-15T06:57:09.577Z,8.86
2019-03-15T07:03:04.589Z,8.79
2019-03-15T07:08:59.621Z,9.83
2019-03-15T07:14:54.693Z,7.32
2019-03-15T07:20:49.592Z,8.41
2019-03-15T07:26:44.602Z,7.79
2019-03-15T07:32:39.601Z,8.12
2019-03-15T07:38:34.608Z,15.74
2019-03-15T07:44:29.677Z,15.5
2019-03-15T07:50:24.653Z,14.73
2019-03-15T07:56:19.627Z,12.2
2019-03-15T08:02:14.630Z,9.82
2019-03-15T08:08:09.642Z,7.43
2019-03-15T08:14:04.655Z,10.07
2019-03-15T08:19:59.644Z,8.11
2019-03-15T08:25:54.644Z,7.72
2019-03-15T08:31:49.647Z,8.43
2019-03-15T08:37:44.654Z,6.88
2019-03-15T08:43:39.679Z,7.41
2019-03-15T08:49:34.667Z,7.91
2019-03-15T08:55:29.693Z,5.93
2019-03-15T09:01:24.676Z,5.49
2019-03-15T09:07:19.684Z,5.56
2019-03-15T09:13:14.689Z,5.31
2019-03-15T09:19:09.691Z,5.65
2019-03-15T09:25:17.995Z,5.73
2019-03-15T09:30:59.695Z,5.55
2019-03-15T09:36:54.699Z,9.73
2019-03-15T09:42:49.732Z,6.56
2019-03-15T09:48:44.783Z,6.47
2019-03-15T09:54:39.775Z,6.15
2019-03-15T10:00:34.721Z,6.27
2019-03-15T10:06:29.736Z,5.33
2019-03-15T10:12:24.834Z,5.88
2019-03-15T10:18:19.776Z,5.41
2019-03-15T10:24:15.612Z,6.15
2019-03-15T10:30:09.828Z,4.75
2019-03-15T10:36:04.791Z,4.84
2019-03-15T10:41:59.774Z,4.16
2019-03-15T10:47:54.795Z,5.33
2019-03-15T10:53:49.800Z,5.02
2019-03-15T10:59:44.822Z,4.44
2019-03-15T11:05:39.820Z,4.9
2019-03-15T11:11:34.788Z,5.49
2019-03-15T11:17:29.796Z,4.85
2019-03-15T11:23:24.822Z,4.71
2019-03-15T11:29:19.809Z,4.21
2019-03-15T11:35:14.834Z,4.13
2019-03-15T11:41:09.851Z,5.63
2019-03-15T11:47:04.876Z,3.87
2019-03-15T11:52:59.825Z,4.26
2019-03-15T11:58:54.876Z,3.02
2019-03-15T12:04:49.865Z,3.98
2019-03-15T12:10:44.840Z,3.58
2019-03-15T12:16:39.851Z,4.01
2019-03-15T12:22:34.891Z,3.64
2019-03-15T12:28:29.949Z,3.7
2019-03-15T12:34:24.872Z,3.45
2019-03-15T12:40:19.886Z,2.7
2019-03-15T12:46:14.876Z,3.13
2019-03-15T12:52:09.904Z,2.28
2019-03-15T12:58:04.908Z,2.87
2019-03-15T13:03:59.890Z,2.75
2019-03-15T13:09:54.898Z,3.31
2019-03-15T13:15:49.912Z,1.73
2019-03-15T13:21:44.906Z,2.74
2019-03-15T13:27:39.951Z,2.66
2019-03-15T13:33:34.996Z,2.44
2019-03-15T13:39:29.958Z,3.23
2019-03-15T13:45:24.955Z,2.58
2019-03-15T13:51:22.509Z,2.53
2019-03-15T13:57:20.871Z,2.31
2019-03-15T14:03:09.989Z,2.45
2019-03-15T14:09:05.021Z,2.19
2019-03-15T14:15:00.082Z,1.77
2019-03-15T14:20:54.960Z,2.14
2019-03-15T14:26:51.046Z,2.21
2019-03-15T14:32:44.995Z,1.79
2019-03-15T14:38:40.050Z,1.95
2019-03-15T14:44:35.017Z,2.29
2019-03-15T14:50:30.067Z,2.28
2019-03-15T14:56:25.037Z,2.15
2019-03-15T15:02:20.041Z,1.97
2019-03-15T15:08:15.030Z,2.01
2019-03-15T15:14:10.082Z,2.08
2019-03-15T15:20:05.025Z,2.41
2019-03-15T15:26:00.078Z,2.09
2019-03-15T15:31:55.122Z,1.98
2019-03-15T15:37:50.049Z,2.3
2019-03-15T15:43:45.062Z,2.1
2019-03-15T15:49:40.054Z,1.95
2019-03-15T15:55:35.063Z,1.85
2019-03-15T16:01:30.073Z,2.69
2019-03-15T16:07:25.094Z,2.08
2019-03-15T16:13:20.100Z,2.19
2019-03-15T16:19:15.148Z,2.41
2019-03-15T16:25:10.115Z,2.01
2019-03-15T16:31:05.093Z,2.12
2019-03-15T16:37:00.108Z,1.83
2019-03-15T16:42:55.136Z,2.07
2019-03-15T16:48:50.115Z,1.97
2019-03-15T16:54:45.158Z,2.17
2019-03-15T17:00:40.130Z,2.81
2019-03-15T17:06:35.163Z,3.3
2019-03-15T17:12:30.138Z,2.38
2019-03-15T17:18:25.201Z,2.43
2019-03-15T17:24:20.199Z,2.36
2019-03-15T17:30:15.199Z,2.51
2019-03-15T17:36:10.156Z,2.53
2019-03-15T17:42:05.177Z,2.39
2019-03-15T17:48:00.190Z,2.77
2019-03-15T17:53:55.214Z,2.89
2019-03-15T17:59:50.169Z,4.93
2019-03-15T18:05:45.197Z,4.94
2019-03-15T18:11:40.249Z,5.96
2019-03-15T18:17:35.229Z,5.37
2019-03-15T18:23:30.230Z,5.12
2019-03-15T18:29:26.019Z,5.44
2019-03-15T18:35:32.834Z,5.48
2019-03-15T18:41:15.275Z,4.6
2019-03-15T18:47:10.238Z,5.47
2019-03-15T18:53:05.228Z,5.95
2019-03-15T18:59:00.332Z,6.14
2019-03-15T19:04:55.289Z,5.92
2019-03-15T19:10:50.270Z,4.43
2019-03-15T19:16:45.257Z,4.77
2019-03-15T19:22:40.271Z,5.51
2019-03-15T19:28:35.287Z,4.93
2019-03-15T19:34:30.272Z,4.5
2019-03-15T19:40:25.281Z,4.18
2019-03-15T19:46:20.288Z,4.29
2019-03-15T19:52:15.291Z,4.63
2019-03-15T19:58:10.306Z,4.19
2019-03-15T20:04:05.306Z,4.65
2019-03-15T20:10:00.378Z,4.39
2019-03-15T20:15:55.454Z,4.75
2019-03-15T20:21:50.310Z,4.25
2019-03-15T20:27:45.354Z,4.33
2019-03-15T20:33:40.346Z,6.27
2019-03-15T20:39:35.359Z,6.68
2019-03-15T20:45:30.340Z,6.53
2019-03-15T20:51:25.349Z,6.99
2019-03-15T20:57:20.364Z,4.8
2019-03-15T21:03:15.396Z,5.03
2019-03-15T21:09:10.363Z,5.11
2019-03-15T21:15:06.044Z,5.99
2019-03-15T21:21:00.400Z,5.05
2019-03-15T21:26:55.430Z,5.91
2019-03-15T21:32:50.413Z,5.4
2019-03-15T21:38:48.308Z,5.27
2019-03-15T21:44:40.489Z,7.24
2019-03-15T21:50:35.408Z,6.73
2019-03-15T21:56:30.405Z,5.77
2019-03-15T22:02:25.443Z,7.05
2019-03-15T22:08:20.433Z,7.96
2019-03-15T22:14:15.427Z,7.11
2019-03-15T22:20:10.445Z,7.5
2019-03-15T22:26:05.449Z,7.95
2019-03-15T22:32:00.478Z,7.41
2019-03-15T22:37:55.468Z,8.04
2019-03-15T22:43:50.475Z,7.78
2019-03-15T22:49:45.453Z,7.04
2019-03-15T22:55:40.458Z,7.2
2019-03-15T23:01:35.463Z,7.58
2019-03-15T23:07:30.473Z,7.1
2019-03-15T23:13:25.478Z,6.64
2019-03-15T23:19:20.496Z,6.64
2019-03-15T23:25:15.522Z,6.76
2019-03-15T23:31:10.521Z,6.04
2019-03-15T23:37:05.504Z,5.67
2019-03-15T23:43:00.488Z,6.37
2019-03-15T23:48:55.555Z,6.21
2019-03-15T23:54:50.503Z,6.17
